Latest Weather Observations for Flinders Reef

IDQ60801

Issued at 8:52 am EST Tuesday 22 January 2019 (issued every 10 minutes, with the page automatically refreshed every 10 minutes)

About weather observations | Map of weather stations | Latest weather observations for QLD | Other Formats
Station Details ID: 200783 Name: FLINDERS REEF Lat: -17.72 Lon: 148.45 Height: 2.6 m
Data from the previous 72 hours. | See also: Recent months at Flinders Reef
Date/Time
EST
Temp
°C
App
Temp
°C
Dew
Point
°C
Rel
Hum
%
Delta-T
°C
Wind Press
QNH
hPa
Press
MSL
hPa
Rain since
9am
mm
Dir  Spd
km/h
Gust
km/h
Spd
kts
Gust
kts
22/08:30am 27.6 - - - - SE 32 37 17 20 1011.6 - -
22/08:24am 27.5 - - - - SE 32 - 17 - - 1011.4 -
22/08:00am 27.5 - - - - SE 33 39 18 21 1011.4 - -
22/07:30am 27.0 - - - - ESE 26 33 14 18 1011.2 - -
22/07:24am 27.0 - - - - ESE 26 - 14 - - 1011.1 -
22/07:00am 25.1 - - - - ESE 33 43 18 23 1011.0 - -
22/06:30am 26.9 - - - - SE 30 33 16 18 1010.8 - -
22/06:24am 27.1 - - - - SE 30 - 16 - - 1010.6 -
22/06:00am 27.0 - - - - SE 30 33 16 18 1010.4 - -
22/05:30am 27.0 - - - - SE 28 33 15 18 1010.1 - -
22/05:24am 27.0 - - - - SE 28 - 15 - - 1009.9 -
22/05:00am 27.1 - - - - ESE 32 39 17 21 1010.1 - -
22/04:30am 26.8 - - - - ESE 30 35 16 19 1010.1 - -
22/04:24am 26.8 - - - - ESE 32 - 17 - - 1010.0 -
22/04:00am 26.6 - - - - ESE 33 37 18 20 1010.2 - -
22/03:30am 26.7 - - - - ESE 33 39 18 21 1010.1 - -
22/03:24am 26.8 - - - - ESE 35 - 19 - - 1010.0 -
22/03:00am 26.8 - - - - E 35 39 19 21 1010.1 - -
22/02:30am 27.0 - - - - E 30 37 16 20 1010.2 - -
22/02:24am 26.8 - - - - E 30 - 16 - - 1010.2 -
22/02:00am 26.5 - - - - E 32 35 17 19 1010.5 - -
22/01:30am 26.3 - - - - ESE 37 41 20 22 1010.8 - -
22/01:24am 26.5 - - - - ESE 37 - 20 - - 1010.8 -
22/01:00am 26.7 - - - - ESE 41 46 22 25 1011.2 - -
22/12:30am 27.3 - - - - E 33 37 18 20 1011.4 - -
22/12:24am 27.6 - - - - E 32 - 17 - - 1011.3 -
22/12:00am 27.2 - - - - E 37 43 20 23 1011.7 - -
 
Date/Time
EST
Temp
°C
App
Temp
°C
Dew
Point
°C
Rel
Hum
%
Delta-T
°C
Wind Press
QNH
hPa
Press
MSL
hPa
Rain since
9am
mm
Dir  Spd
km/h
Gust
km/h
Spd
kts
Gust
kts
21/11:30pm 27.7 - - - - E 33 37 18 20 1012.1 - -
21/11:24pm 27.7 - - - - E 32 - 17 - - 1012.1 -
21/11:00pm 27.5 - - - - E 33 37 18 20 1012.3 - -
21/10:30pm 27.5 - - - - E 32 35 17 19 1012.4 - -
21/10:24pm 27.5 - - - - E 30 - 16 - - 1012.4 -
21/10:00pm 27.4 - - - - E 28 33 15 18 1012.4 - -
21/09:30pm 27.4 - - - - E 32 35 17 19 1012.4 - -
21/09:24pm 27.5 - - - - E 32 - 17 - - 1012.2 -
21/09:00pm 27.5 - - - - E 24 30 13 16 1012.3 - -
21/08:30pm 27.5 - - - - ESE 24 28 13 15 1012.1 - -
21/08:24pm 27.5 - - - - ESE 24 - 13 - - 1012.0 -
21/08:00pm 27.2 - - - - ESE 26 28 14 15 1011.9 - -
21/07:30pm 27.0 - - - - ESE 28 32 15 17 1011.6 - -
21/07:24pm 27.2 - - - - ESE 30 - 16 - - 1011.5 -
21/07:00pm 27.6 - - - - ESE 28 35 15 19 1011.3 - -
21/06:30pm 27.5 - - - - ESE 30 35 16 19 1010.7 - -
21/06:24pm 27.8 - - - - SE 28 - 15 - - 1010.5 -
21/06:00pm 27.4 - - - - SE 30 33 16 18 1010.3 - -
21/05:30pm 27.7 - - - - SE 30 35 16 19 1010.1 - -
21/05:24pm 27.7 - - - - ESE 30 - 16 - - 1010.0 -
21/05:00pm 27.8 - - - - SE 30 35 16 19 1009.8 - -
21/04:30pm 27.5 - - - - SE 28 32 15 17 1009.6 - -
21/04:24pm 27.6 - - - - ESE 28 - 15 - - 1009.5 -
21/04:00pm 27.7 - - - - ESE 30 33 16 18 1009.5 - -
21/03:30pm 27.7 - - - - ESE 30 35 16 19 1009.5 - -
21/03:24pm 27.6 - - - - ESE 30 - 16 - - 1009.5 -
21/03:00pm 27.7 - - - - ESE 30 33 16 18 1009.8 - -
21/02:30pm 27.7 - - - - ESE 32 35 17 19 1009.9 - -
21/02:24pm 27.4 - - - - ESE 30 - 16 - - 1009.7 -
21/02:00pm 27.5 - - - - ESE 32 37 17 20 1009.9 - -
21/01:30pm 27.4 - - - - ESE 32 37 17 20 1010.1 - -
21/01:24pm 27.4 - - - - ESE 33 - 18 - - 1010.0 -
21/01:00pm 27.4 - - - - ESE 33 39 18 21 1010.2 - -
21/12:30pm 27.5 - - - - ESE 35 41 19 22 1010.5 - -
21/12:24pm 27.5 - - - - ESE 37 - 20 - - 1010.4 -
21/12:00pm 27.3 - - - - ESE 37 43 20 23 1010.6 - -
21/11:30am 27.5 - - - - ESE 37 43 20 23 1010.8 - -
21/11:24am 27.5 - - - - ESE 37 - 20 - - 1010.7 -
21/11:00am 27.3 - - - - ESE 39 44 21 24 1010.9 - -
21/10:30am 27.3 - - - - ESE 37 43 20 23 1011.1 - -
21/10:24am 27.4 - - - - ESE 37 - 20 - - 1011.0 -
21/10:00am 27.4 - - - - ESE 41 46 22 25 1011.0 - -
21/09:30am 27.4 - - - - ESE 39 44 21 24 1010.9 - -
21/09:24am 27.4 - - - - ESE 39 - 21 - - 1010.8 -
21/09:00am 27.3 - - - - ESE 41 48 22 26 1010.8 - -
21/08:30am 27.4 - - - - ESE 39 46 21 25 1010.6 - -
21/08:24am 27.5 - - - - ESE 39 - 21 - - 1010.6 -
21/08:00am 27.3 - - - - ESE 39 44 21 24 1010.6 - -
21/07:30am 27.5 - - - - ESE 41 48 22 26 1010.5 - -
21/07:24am 27.3 - - - - ESE 43 - 23 - - 1010.3 -
21/07:00am 27.3 - - - - ESE 39 44 21 24 1010.4 - -
21/06:30am 27.0 - - - - ESE 43 46 23 25 1010.0 - -
21/06:24am 27.0 - - - - ESE 41 - 22 - - 1009.9 -
21/06:00am 27.1 - - - - ESE 41 46 22 25 1009.8 - -
21/05:30am 27.0 - - - - ESE 41 46 22 25 1009.4 - -
21/05:24am 26.9 - - - - ESE 41 - 22 - - 1009.3 -
21/05:00am 26.8 - - - - ESE 39 46 21 25 1009.2 - -
21/04:30am 27.1 - - - - ESE 37 43 20 23 1009.3 - -
21/04:24am 27.1 - - - - ESE 37 - 20 - - 1009.2 -
21/04:00am 27.2 - - - - ESE 41 46 22 25 1009.4 - -
21/03:30am 27.0 - - - - ESE 39 46 21 25 1009.4 - -
21/03:24am 27.1 - - - - ESE 37 - 20 - - 1009.4 -
21/03:00am 27.2 - - - - E 35 41 19 22 1009.7 - -
21/02:30am 27.0 - - - - ESE 35 41 19 22 1009.8 - -
21/02:24am 27.3 - - - - ESE 37 - 20 - - 1009.8 -
21/02:00am 27.1 - - - - ESE 35 41 19 22 1010.1 - -
21/01:30am 27.0 - - - - ESE 41 46 22 25 1010.4 - -
21/01:24am 26.9 - - - - ESE 37 - 20 - - 1010.4 -
21/01:00am 27.2 - - - - ESE 37 43 20 23 1010.8 - -
21/12:30am 27.0 - - - - ESE 41 46 22 25 1011.3 - -
21/12:24am 27.1 - - - - ESE 41 - 22 - - 1011.2 -
21/12:00am 27.2 - - - - ESE 43 48 23 26 1011.5 - -
 
Date/Time
EST
Temp
°C
App
Temp
°C
Dew
Point
°C
Rel
Hum
%
Delta-T
°C
Wind Press
QNH
hPa
Press
MSL
hPa
Rain since
9am
mm
Dir  Spd
km/h
Gust
km/h
Spd
kts
Gust
kts
20/11:30pm 27.5 - - - - ESE 43 48 23 26 1011.9 - -
20/11:24pm 27.2 - - - - ESE 39 - 21 - - 1011.8 -
20/11:00pm 27.4 - - - - ESE 43 48 23 26 1012.1 - -
20/10:30pm 27.2 - - - - E 37 46 20 25 1012.4 - -
20/10:24pm 27.1 - - - - E 37 - 20 - - 1012.3 -
20/10:00pm 26.8 - - - - E 41 48 22 26 1012.3 - -
20/09:32pm 26.8 - - - - ESE 41 59 22 32 1012.2 - -
20/09:30pm 27.5 - - - - ESE 39 44 21 24 1012.3 - -
20/09:24pm 27.7 - - - - ESE 37 - 20 - - 1012.1 -
20/09:00pm 27.7 - - - - ESE 35 41 19 22 1012.2 - -
20/08:30pm 27.7 - - - - ESE 33 39 18 21 1012.1 - -
20/08:24pm 27.7 - - - - ESE 35 - 19 - - 1011.9 -
20/08:00pm 27.5 - - - - ESE 33 39 18 21 1011.8 - -
20/07:30pm 27.5 - - - - SE 35 41 19 22 1011.6 - -
20/07:24pm 27.6 - - - - SE 35 - 19 - - 1011.5 -
20/07:00pm 27.8 - - - - ESE 37 41 20 22 1011.2 - -
20/06:30pm 27.5 - - - - SE 35 41 19 22 1011.1 - -
20/06:24pm 27.3 - - - - SE 35 - 19 - - 1010.9 -
20/06:00pm 27.5 - - - - SE 35 41 19 22 1010.7 - -
20/05:30pm 27.3 - - - - SE 37 43 20 23 1010.3 - -
20/05:24pm 27.4 - - - - SE 39 - 21 - - 1010.3 -
20/05:00pm 27.4 - - - - SE 37 44 20 24 1010.4 - -
20/04:30pm 27.7 - - - - SE 35 43 19 23 1010.2 - -
20/04:24pm 27.6 - - - - SE 37 - 20 - - 1010.1 -
20/04:00pm 27.7 - - - - SE 37 46 20 25 1010.1 - -
20/03:30pm 28.0 - - - - SE 33 41 18 22 1010.2 - -
20/03:24pm 27.9 - - - - SE 35 - 19 - - 1010.2 -
20/03:00pm 27.8 - - - - SE 35 39 19 21 1010.3 - -
20/02:30pm 27.5 - - - - SE 35 43 19 23 1010.5 - -
20/02:24pm 27.4 - - - - SE 35 - 19 - - 1010.4 -
20/02:00pm 27.6 - - - - SE 37 43 20 23 1010.6 - -
20/01:30pm 27.9 - - - - SE 37 43 20 23 1010.7 - -
20/01:24pm 28.1 - - - - SE 35 - 19 - - 1010.7 -
20/01:00pm 27.8 - - - - SE 35 41 19 22 1010.9 - -
20/12:30pm 27.7 - - - - ESE 39 44 21 24 1011.1 - -
20/12:24pm 27.6 - - - - ESE 37 - 20 - - 1011.0 -
20/12:00pm 27.5 - - - - ESE 35 43 19 23 1011.6 - -
20/11:30am 27.5 - - - - ESE 41 46 22 25 1012.0 - -
20/11:24am 27.3 - - - - ESE 41 - 22 - - 1011.9 -
20/11:00am 27.2 - - - - ESE 37 46 20 25 1012.2 - -
20/10:30am 27.1 - - - - ESE 39 46 21 25 1012.3 - -
20/10:24am 27.4 - - - - ESE 39 - 21 - - 1012.2 -
20/10:00am 26.6 - - - - SE 19 39 10 21 1012.2 - -
20/09:30am 26.4 - - - - ESE 22 24 12 13 1012.4 - -
20/09:24am 26.2 - - - - ESE 22 - 12 - - 1012.3 -
20/09:00am 25.9 - - - - E 30 39 16 21 1012.4 - -
20/08:52am 26.3 - - - - E 28 33 15 18 1012.5 - -
20/08:30am 25.5 - - - - SSE 39 48 21 26 1012.2 - -
20/08:24am 25.8 - - - - SSE 44 48 24 26 1012.2 1012.1 -
20/08:00am 26.7 - - - - ESE 43 52 23 28 1011.8 - -
20/07:30am 27.2 - - - - ESE 37 43 20 23 1011.6 - -
20/07:24am 26.8 - - - - ESE 39 - 21 - - 1011.3 -
20/07:00am 27.8 - - - - ESE 35 41 19 22 1011.1 - -
20/06:30am 27.4 - - - - SE 30 35 16 19 1010.7 - -
20/06:24am 27.2 - - - - SE 33 - 18 - - 1010.4 -
20/06:00am 27.3 - - - - SE 32 39 17 21 1010.2 - -
20/05:30am 27.3 - - - - ESE 32 37 17 20 1009.7 - -
20/05:24am 26.9 - - - - ESE 30 - 16 - - 1009.5 -
20/05:00am 26.9 - - - - ESE 33 39 18 21 1009.5 - -
20/04:30am 27.0 - - - - SE 33 39 18 21 1009.2 - -
20/04:24am 27.1 - - - - ESE 33 - 18 - - 1009.1 -
20/04:00am 26.9 - - - - SE 35 41 19 22 1009.2 - -
20/03:30am 26.9 - - - - SE 33 39 18 21 1009.1 - -
20/03:24am 27.3 - - - - ESE 33 - 18 - - 1009.1 -
20/03:00am 27.1 - - - - SE 32 39 17 21 1009.4 - -
20/02:30am 27.5 - - - - ESE 35 41 19 22 1009.5 - -
20/02:24am 27.4 - - - - SE 33 - 18 - - 1009.5 -
20/02:00am 27.2 - - - - ESE 32 35 17 19 1009.9 - -
20/01:30am 27.1 - - - - ESE 37 44 20 24 1010.1 - -
20/01:24am 27.2 - - - - SE 33 - 18 - - 1010.0 -
20/01:00am 27.6 - - - - ESE 35 41 19 22 1010.4 - -
20/12:30am 27.4 - - - - ESE 32 35 17 19 1010.6 - -
20/12:24am 27.3 - - - - ESE 32 - 17 - - 1010.6 -
20/12:00am 27.4 - - - - ESE 35 39 19 21 1011.1 - -
 
Date/Time
EST
Temp
°C
App
Temp
°C
Dew
Point
°C
Rel
Hum
%
Delta-T
°C
Wind Press
QNH
hPa
Press
MSL
hPa
Rain since
9am
mm
Dir  Spd
km/h
Gust
km/h
Spd
kts
Gust
kts
19/11:30pm 27.5 - - - - ESE 37 43 20 23 1011.4 - -
19/11:24pm 27.6 - - - - ESE 37 - 20 - - 1011.3 -
19/11:00pm 27.6 - - - - ESE 35 41 19 22 1011.6 - -
19/10:30pm 27.5 - - - - ESE 26 35 14 19 1011.9 - -
19/10:24pm 27.2 - - - - E 28 - 15 - - 1011.9 -
19/10:00pm 26.1 - - - - ESE 41 48 22 26 1011.9 - -
19/09:30pm 27.4 - - - - ESE 30 35 16 19 1011.8 - -
19/09:24pm 27.4 - - - - ESE 32 - 17 - - 1011.7 -
19/09:00pm 27.3 - - - - ESE 28 35 15 19 1011.9 - -
19/08:30pm 27.5 - - - - ESE 33 39 18 21 1011.8 - -
19/08:24pm 27.3 - - - - ESE 33 - 18 - - 1011.7 -
19/08:00pm 27.4 - - - - ESE 32 35 17 19 1011.8 - -
19/07:30pm 27.2 - - - - ESE 32 39 17 21 1011.6 - -
19/07:24pm 27.6 - - - - ESE 33 - 18 - - 1011.6 -
19/07:00pm 27.6 - - - - ESE 32 35 17 19 1011.5 - -
19/06:30pm 27.5 - - - - SE 33 39 18 21 1011.1 - -
19/06:24pm 27.7 - - - - SE 33 - 18 - - 1010.9 -
19/06:00pm 27.6 - - - - SE 35 41 19 22 1010.8 - -
19/05:30pm 27.6 - - - - SE 33 39 18 21 1010.4 - -
19/05:24pm 27.7 - - - - ESE 33 - 18 - - 1010.2 -
19/05:00pm 27.4 - - - - SE 33 39 18 21 1010.2 - -
19/04:30pm 27.6 - - - - ESE 33 39 18 21 1010.0 - -
19/04:24pm 27.6 - - - - ESE 33 - 18 - - 1009.8 -
19/04:00pm 27.4 - - - - ESE 33 39 18 21 1009.8 - -
19/03:30pm 27.5 - - - - ESE 33 39 18 21 1010.0 - -
19/03:24pm 27.6 - - - - ESE 33 - 18 - - 1009.9 -
19/03:00pm 27.6 - - - - SE 30 35 16 19 1010.1 - -
19/02:30pm 27.8 - - - - SE 28 32 15 17 1010.4 - -
19/02:24pm 27.7 - - - - SE 28 - 15 - - 1010.4 -
19/02:00pm 27.5 - - - - SE 28 33 15 18 1010.7 - -
19/01:30pm 28.0 - - - - ESE 26 30 14 16 1011.0 - -
19/01:24pm 27.8 - - - - ESE 28 - 15 - - 1010.9 -
19/01:00pm 27.5 - - - - ESE 30 33 16 18 1011.2 - -
19/12:30pm 27.7 - - - - SE 30 35 16 19 1011.5 - -
19/12:24pm 27.7 - - - - ESE 30 - 16 - - 1011.5 -
19/12:00pm 27.7 - - - - ESE 28 33 15 18 1011.8 - -
19/11:30am 27.7 - - - - SE 28 30 15 16 1012.1 - -
19/11:24am 27.6 - - - - SE 26 - 14 - - 1012.1 -
19/11:00am 27.7 - - - - SE 28 32 15 17 1012.4 - -
19/10:30am 27.7 - - - - SE 28 32 15 17 1012.5 - -
19/10:24am 27.7 - - - - SE 28 - 15 - - 1012.5 -
19/10:00am 27.4 - - - - ESE 26 30 14 16 1012.8 - -
19/09:30am 27.6 - - - - SE 26 32 14 17 1012.9 - -
19/09:24am 27.8 - - - - SE 28 - 15 - - 1012.8 -
19/09:00am 28.0 - - - - ESE 28 32 15 17 1013.0 - -

Other Formats:

Comma delimited format used in spreadsheet applications
http://www.bom.gov.au/fwo/IDQ60801/IDQ60801.94290.axf

JavaScript Object Notation format (JSON) in row-major order
http://www.bom.gov.au/fwo/IDQ60801/IDQ60801.94290.json